Time;durP1;ratioP1;P1;durP2;ratioP2;P2;SDS_P1;SDS_P2;PMS_P1;PMS_P2;Temp;Humidity;BMP_temperature;BMP_pressure;BME280_temperature;BME280_humidity;BME280_pressure;Samples;Min_cycle;Max_cycle;Signal;HPM_P1;HPM_P2
2022/08/19 00:00:08;;;;;;;13.10;11.75;;;;;;;18.30;77.21;101226.34;5103362;28;20055;-78
2022/08/19 00:02:35;;;;;;;13.70;12.30;;;;;;;18.28;76.88;101222.94;5106120;28;20044;-78
2022/08/19 00:05:01;;;;;;;12.68;11.25;;;;;;;18.27;76.89;101218.63;5103925;28;20020;-78
2022/08/19 00:07:26;;;;;;;12.43;11.13;;;;;;;18.24;77.24;101224.03;5101514;28;20043;-78
2022/08/19 00:09:51;;;;;;;10.82;9.55;;;;;;;18.23;77.25;101221.47;5102924;28;20020;-78
2022/08/19 00:12:17;;;;;;;10.70;8.63;;;;;;;18.22;77.43;101219.78;5106939;28;20035;-79
2022/08/19 00:14:42;;;;;;;10.55;9.52;;;;;;;18.20;77.36;101223.34;5104238;28;20030;-78
2022/08/19 00:17:08;;;;;;;11.68;10.18;;;;;;;18.14;76.62;101215.78;5102731;27;20015;-78
2022/08/19 00:19:34;;;;;;;12.73;11.40;;;;;;;18.12;77.77;101227.28;5104393;28;20045;-78
2022/08/19 00:22:00;;;;;;;14.25;12.10;;;;;;;18.10;77.80;101222.13;5104622;28;20035;-78
2022/08/19 00:24:26;;;;;;;14.40;12.88;;;;;;;18.08;78.02;101223.13;5105394;28;20024;-78
2022/08/19 00:26:52;;;;;;;15.57;13.05;;;;;;;18.05;78.35;101218.84;5101529;27;20023;-78
2022/08/19 00:29:19;;;;;;;13.75;12.25;;;;;;;18.01;78.08;101223.44;5104254;27;20031;-79
2022/08/19 00:31:46;;;;;;;14.77;13.15;;;;;;;18.01;78.32;101231.34;5100858;28;20020;-78
2022/08/19 00:34:13;;;;;;;14.73;13.13;;;;;;;18.00;78.71;101229.63;5103408;28;20024;-78
2022/08/19 00:36:39;;;;;;;13.88;12.45;;;;;;;17.99;78.49;101230.56;5105473;28;20024;-79
2022/08/19 00:39:05;;;;;;;13.75;12.30;;;;;;;17.97;78.08;101235.00;5102979;28;20057;-79
2022/08/19 00:41:30;;;;;;;13.73;12.23;;;;;;;17.95;79.04;101228.97;5104517;28;20031;-79
2022/08/19 00:44:04;;;;;;;16.13;13.95;;;;;;;17.96;79.25;101229.84;5098432;28;20471;-78
2022/08/19 00:46:29;;;;;;;15.30;13.20;;;;;;;17.95;78.96;101228.97;5105450;28;20016;-78
2022/08/19 00:48:57;;;;;;;15.07;13.05;;;;;;;17.97;78.54;101221.03;5103339;28;20108;-78
2022/08/19 00:51:26;;;;;;;15.65;13.93;;;;;;;17.96;78.34;101230.69;5104087;28;20493;-78
2022/08/19 00:53:52;;;;;;;15.32;13.70;;;;;;;17.93;79.66;101230.88;5081581;28;20061;-78
2022/08/19 00:56:18;;;;;;;15.38;13.68;;;;;;;17.95;79.52;101222.88;5107166;28;20031;-78
2022/08/19 00:58:43;;;;;;;17.67;14.00;;;;;;;17.96;80.27;101224.56;5104019;28;20096;-78
2022/08/19 01:01:09;;;;;;;17.23;14.60;;;;;;;17.96;80.83;101221.94;5102589;27;20047;-78
2022/08/19 01:03:34;;;;;;;17.88;14.70;;;;;;;17.95;80.88;101226.34;5109995;28;20102;-78
2022/08/19 01:06:00;;;;;;;16.92;14.82;;;;;;;17.95;80.50;101222.88;5098074;28;20032;-78
2022/08/19 01:08:25;;;;;;;18.05;14.65;;;;;;;17.93;80.76;101227.34;5099685;28;20012;-78
2022/08/19 01:10:57;;;;;;;15.57;13.90;;;;;;;17.89;79.92;101226.69;5105361;28;20114;-78
2022/08/19 01:13:28;;;;;;;16.02;13.63;;;;;;;17.86;79.41;101218.94;5105116;28;20078;-78
2022/08/19 01:16:01;;;;;;;16.63;13.70;;;;;;;17.85;79.51;101225.13;5106122;28;20032;-78
2022/08/19 01:18:27;;;;;;;14.85;13.25;;;;;;;17.83;79.62;101225.22;5106686;28;20035;-78
2022/08/19 01:20:55;;;;;;;13.32;11.93;;;;;;;17.81;78.91;101228.81;5097537;28;21038;-78
2022/08/19 01:23:42;;;;;;;13.50;10.95;;;;;;;17.77;78.34;101224.63;5099296;28;20028;-78
2022/08/19 01:26:07;;;;;;;13.23;10.80;;;;;;;17.72;78.50;101223.09;5101153;28;20143;-78
2022/08/19 01:28:32;;;;;;;15.25;12.98;;;;;;;17.68;78.88;101231.22;5104257;28;20133;-78
2022/08/19 01:30:57;;;;;;;14.73;12.05;;;;;;;17.64;78.46;101227.06;5098832;28;20028;-78
2022/08/19 01:33:22;;;;;;;13.73;11.95;;;;;;;17.60;78.30;101226.31;5099191;28;20027;-78
2022/08/19 01:35:52;;;;;;;15.32;12.38;;;;;;;17.60;79.35;101231.59;5103928;28;20028;-78
2022/08/19 01:38:26;;;;;;;12.13;10.50;;;;;;;17.56;79.08;101233.53;5094855;28;20078;-78
2022/08/19 01:40:52;;;;;;;13.30;11.00;;;;;;;17.52;78.85;101241.66;5100606;28;20396;-78
2022/08/19 01:43:18;;;;;;;14.00;12.35;;;;;;;17.51;79.78;101235.53;5103193;28;20095;-78
2022/08/19 01:45:44;;;;;;;14.32;11.70;;;;;;;17.45;77.89;101236.69;5098396;28;20054;-78
2022/08/19 01:48:10;;;;;;;16.92;12.18;;;;;;;17.41;78.19;101232.50;5099570;28;20076;-78
2022/08/19 01:50:36;;;;;;;12.23;10.80;;;;;;;17.38;78.09;101232.66;5097428;28;20031;-78
2022/08/19 01:53:05;;;;;;;12.65;10.63;;;;;;;17.36;78.17;101234.50;5095804;28;21870;-78
2022/08/19 01:55:31;;;;;;;12.63;10.57;;;;;;;17.32;78.43;101235.56;5099378;28;20073;-78
2022/08/19 01:57:59;;;;;;;11.68;10.30;;;;;;;17.26;78.34;101239.34;5101697;28;20015;-78
2022/08/19 02:00:27;;;;;;;12.48;10.88;;;;;;;17.22;78.88;101242.19;5100620;28;20114;-78
2022/08/19 02:02:52;;;;;;;10.63;9.52;;;;;;;17.18;78.45;101244.09;5060970;28;20060;-78
2022/08/19 02:05:18;;;;;;;10.95;9.85;;;;;;;17.15;78.51;101246.91;5057465;28;20025;-78
2022/08/19 02:07:44;;;;;;;11.18;9.13;;;;;;;17.13;79.17;101252.22;5061170;28;20043;-78
2022/08/19 02:10:14;;;;;;;12.73;10.70;;;;;;;17.10;79.33;101251.50;5059137;28;20032;-78
2022/08/19 02:12:39;;;;;;;13.63;12.23;;;;;;;17.08;79.52;101258.63;5061960;28;20021;-78
2022/08/19 02:15:05;;;;;;;15.40;11.93;;;;;;;17.06;79.57;101257.81;5059758;28;20506;-78
2022/08/19 02:17:31;;;;;;;14.93;12.98;;;;;;;17.05;79.78;101256.13;5062266;28;20107;-78
2022/08/19 02:19:57;;;;;;;14.35;12.75;;;;;;;17.03;79.92;101256.22;5059793;28;20031;-78
2022/08/19 02:22:25;;;;;;;17.85;13.32;;;;;;;17.05;79.96;101256.13;5067106;28;20036;-78
2022/08/19 02:24:51;;;;;;;18.65;13.10;;;;;;;17.04;80.05;101242.16;5056089;28;20104;-78
2022/08/19 02:27:16;;;;;;;17.33;13.60;;;;;;;17.02;80.10;101244.00;5057657;28;20108;-78
2022/08/19 02:29:42;;;;;;;16.65;13.27;;;;;;;17.02;80.13;101244.00;5059482;28;20085;-78
2022/08/19 02:32:07;;;;;;;18.13;13.32;;;;;;;17.01;79.86;101250.16;5053510;28;20100;-78
2022/08/19 02:34:33;;;;;;;17.60;12.73;;;;;;;16.99;79.81;101246.75;5057775;28;20031;-78
2022/08/19 02:36:59;;;;;;;16.00;13.07;;;;;;;16.97;80.09;101254.72;5059526;28;20029;-78
2022/08/19 02:39:24;;;;;;;15.52;13.10;;;;;;;16.97;79.83;101253.84;5056605;28;20484;-78
2022/08/19 02:41:50;;;;;;;15.00;12.40;;;;;;;16.93;78.32;101258.38;5065730;28;20020;-78
2022/08/19 02:44:16;;;;;;;12.68;10.30;;;;;;;16.90;77.99;101253.25;5060507;28;20061;-78
2022/08/19 02:46:41;;;;;;;14.85;10.93;;;;;;;16.89;78.34;101255.97;5054639;28;20016;-78
2022/08/19 02:49:07;;;;;;;13.82;10.95;;;;;;;16.83;78.12;101255.31;5061605;28;20402;-78
2022/08/19 02:51:36;;;;;;;10.68;9.43;;;;;;;16.79;78.46;101253.75;5057954;28;20037;-78
2022/08/19 02:54:03;;;;;;;9.40;8.20;;;;;;;16.77;78.37;101266.09;5061200;28;20040;-78
2022/08/19 02:56:30;;;;;;;10.10;8.15;;;;;;;16.73;78.28;101267.16;5060662;28;20032;-78
2022/08/19 02:58:56;;;;;;;10.48;8.65;;;;;;;16.72;78.68;101268.09;5063164;28;20040;-78
2022/08/19 03:01:27;;;;;;;10.05;8.13;;;;;;;16.69;79.17;101262.97;5069586;28;20044;-78
2022/08/19 03:03:52;;;;;;;10.50;9.10;;;;;;;16.67;79.06;101259.56;5102987;28;20491;-78
2022/08/19 03:06:18;;;;;;;9.63;8.45;;;;;;;16.63;79.19;101257.97;5101963;28;20514;-78
2022/08/19 03:08:46;;;;;;;18.17;9.20;;;;;;;16.59;79.22;101261.66;5107065;28;20095;-78
2022/08/19 03:11:19;;;;;;;11.85;9.45;;;;;;;16.57;79.21;101263.53;5098959;28;20055;-78
2022/08/19 03:13:45;;;;;;;12.82;11.23;;;;;;;16.57;79.98;101263.53;5096367;28;20020;-78
2022/08/19 03:16:11;;;;;;;12.35;10.73;;;;;;;16.53;79.75;101266.28;5097855;28;20024;-78
2022/08/19 03:18:37;;;;;;;14.77;11.55;;;;;;;16.54;80.12;101268.00;5104987;28;20036;-78
2022/08/19 03:21:02;;;;;;;12.57;10.25;;;;;;;16.49;79.36;101272.59;5104707;28;20390;-78
2022/08/19 03:23:28;;;;;;;13.80;10.95;;;;;;;16.47;79.83;101263.91;5094117;28;20026;-78
2022/08/19 03:25:53;;;;;;;13.02;10.18;;;;;;;16.46;79.71;101267.47;5106668;28;20094;-78
2022/08/19 03:28:20;;;;;;;12.40;10.60;;;;;;;16.46;80.17;101261.38;5104297;28;20323;-78
2022/08/19 03:31:06;;;;;;;21.00;11.00;;;;;;;16.46;79.55;101262.19;5104370;28;20020;-78
2022/08/19 03:33:33;;;;;;;11.52;9.82;;;;;;;16.43;80.03;101267.59;5100486;28;20030;-78
2022/08/19 03:36:10;;;;;;;14.70;10.55;;;;;;;16.42;79.99;101271.13;5099671;28;20206;-78
2022/08/19 03:38:38;;;;;;;12.70;10.05;;;;;;;16.41;80.05;101268.59;5083490;28;20027;-78
2022/08/19 03:41:06;;;;;;;11.80;10.27;;;;;;;16.40;80.32;101272.97;5102619;28;20027;-78
2022/08/19 03:43:33;;;;;;;11.75;9.00;;;;;;;16.36;80.16;101271.41;5098130;28;20203;-78
2022/08/19 03:46:05;;;;;;;15.25;10.32;;;;;;;16.34;80.39;101258.34;5100333;28;20023;-78
2022/08/19 03:48:32;;;;;;;13.52;9.85;;;;;;;16.33;80.60;101263.66;5105688;28;20024;-78
2022/08/19 03:50:58;;;;;;;14.57;10.10;;;;;;;16.29;80.71;101264.72;5099821;28;20024;-78
2022/08/19 03:53:25;;;;;;;12.43;9.38;;;;;;;16.28;80.12;101256.00;5096783;28;20043;-78
2022/08/19 03:55:51;;;;;;;9.63;8.05;;;;;;;16.26;79.65;101255.22;5087932;28;20048;-78
2022/08/19 03:58:16;;;;;;;12.18;8.60;;;;;;;16.24;79.87;101250.00;5095081;28;20193;-78
2022/08/19 04:00:43;;;;;;;10.02;8.25;;;;;;;16.24;79.98;101257.03;5105049;28;20372;-78
2022/08/19 04:03:08;;;;;;;10.85;8.55;;;;;;;16.23;79.67;101257.94;5104644;28;20020;-78
2022/08/19 04:05:34;;;;;;;12.48;9.15;;;;;;;16.18;79.13;101260.78;5099444;28;20031;-78
2022/08/19 04:08:00;;;;;;;13.18;10.10;;;;;;;16.14;79.70;101272.31;5097080;28;20099;-78
2022/08/19 04:10:26;;;;;;;16.63;11.63;;;;;;;16.14;80.61;101271.50;5104473;28;20042;-78
2022/08/19 04:12:51;;;;;;;16.35;11.32;;;;;;;16.12;80.92;101268.91;5100691;28;20355;-78
2022/08/19 04:15:17;;;;;;;16.05;11.70;;;;;;;16.11;80.69;101267.19;5101037;28;20103;-78
2022/08/19 04:17:42;;;;;;;14.05;11.18;;;;;;;16.11;80.33;101256.69;5100914;28;20020;-78
2022/08/19 04:20:07;;;;;;;16.30;11.27;;;;;;;16.10;79.94;101260.25;5105205;28;20032;-78
2022/08/19 04:22:33;;;;;;;14.77;11.77;;;;;;;16.08;80.34;101259.44;5099374;28;20038;-78
2022/08/19 04:24:58;;;;;;;14.63;11.38;;;;;;;16.04;80.20;101256.09;5101168;28;20042;-78
2022/08/19 04:27:23;;;;;;;15.70;11.80;;;;;;;16.02;79.97;101255.31;5099275;28;20036;-78
2022/08/19 04:29:48;;;;;;;14.52;10.48;;;;;;;16.01;79.96;101255.41;5097422;28;20462;-78
2022/08/19 04:32:15;;;;;;;13.50;10.23;;;;;;;15.98;79.15;101245.84;5097793;28;20046;-78
2022/08/19 04:34:42;;;;;;;14.52;10.23;;;;;;;15.93;79.31;101246.06;5089066;28;20027;-78
2022/08/19 04:37:11;;;;;;;19.15;12.18;;;;;;;15.89;79.94;101239.22;5103786;28;20023;-78
2022/08/19 04:42:39;;;;;;;13.77;10.85;;;;;;;15.88;80.10;101250.66;5106228;28;20046;-78
2022/08/19 04:45:11;;;;;;;15.77;11.98;;;;;;;15.89;80.96;101256.75;5104560;28;20110;-77
2022/08/19 04:47:39;;;;;;;18.35;13.10;;;;;;;15.89;81.29;101252.34;5103550;28;20090;-78
2022/08/19 04:50:05;;;;;;;17.17;12.13;;;;;;;15.89;81.59;101252.34;5108974;28;20024;-78
2022/08/19 04:52:31;;;;;;;15.63;12.18;;;;;;;15.89;80.93;101254.97;5106636;28;20043;-78
2022/08/19 04:54:58;;;;;;;17.58;13.13;;;;;;;15.89;80.96;101254.13;5102879;28;20394;-78
2022/08/19 04:57:23;;;;;;;25.00;13.57;;;;;;;15.88;81.43;101255.91;5100647;28;20543;-78
2022/08/19 04:59:53;;;;;;;20.67;13.05;;;;;;;15.89;81.71;101257.59;5100321;28;20032;-78
2022/08/19 05:02:18;;;;;;;17.40;13.02;;;;;;;15.92;81.43;101260.09;5097986;28;21202;-77
2022/08/19 05:04:43;;;;;;;20.45;13.30;;;;;;;15.93;82.16;101263.59;5101452;27;20478;-78
2022/08/19 05:07:09;;;;;;;19.85;13.75;;;;;;;15.95;82.91;101266.13;5101898;27;20027;-78
2022/08/19 05:09:35;;;;;;;20.85;13.93;;;;;;;15.97;83.44;101269.56;5618115;22;20034;-79
2022/08/19 05:12:00;;;;;;;19.48;14.23;;;;;;;16.01;84.25;101273.75;5137327;22;20101;-75
2022/08/19 05:14:25;;;;;;;18.60;13.38;;;;;;;16.05;84.33;101264.84;5084846;28;20040;-75
2022/08/19 05:16:51;;;;;;;21.98;14.57;;;;;;;16.10;84.74;101276.00;5087852;28;20038;-75
2022/08/19 05:24:44;;;;;;;20.35;15.75;;;;;;;16.22;85.18;101278.13;5059463;28;20090;-75
2022/08/19 05:27:09;;;;;;;22.35;16.17;;;;;;;16.27;85.17;101279.66;5058312;28;20025;-75
2022/08/19 05:29:35;;;;;;;26.83;17.08;;;;;;;16.30;85.59;101277.78;5037790;28;20352;-75
2022/08/19 05:32:04;;;;;;;25.95;18.00;;;;;;;16.35;85.69;101283.69;5060197;28;20071;-75
2022/08/19 05:34:30;;;;;;;24.65;17.80;;;;;;;16.42;85.57;101291.31;5041685;28;20379;-75
2022/08/19 05:36:58;;;;;;;26.55;19.42;;;;;;;16.45;85.65;101294.63;5054764;28;20137;-75
2022/08/19 05:39:26;;;;;;;26.23;19.38;;;;;;;16.52;85.41;101303.97;5060164;28;20102;-75
2022/08/19 05:41:56;;;;;;;29.58;18.95;;;;;;;16.57;85.50;101297.66;5058578;28;20024;-76
2022/08/19 05:44:25;;;;;;;26.10;18.20;;;;;;;16.60;85.38;101300.13;5045487;28;20025;-75
2022/08/19 05:46:52;;;;;;;26.98;19.58;;;;;;;16.64;85.29;101306.97;5038107;28;20025;-75
2022/08/19 05:49:19;;;;;;;27.10;18.42;;;;;;;16.66;85.17;101310.38;5054010;28;20039;-75
2022/08/19 05:51:45;;;;;;;27.70;18.48;;;;;;;16.68;84.99;101308.56;5055624;28;20075;-75
2022/08/19 05:54:13;;;;;;;26.83;19.58;;;;;;;16.70;84.88;101304.09;5058025;28;20021;-75
2022/08/19 05:56:40;;;;;;;29.42;20.08;;;;;;;16.73;84.75;101305.72;5065571;28;20074;-75
2022/08/19 05:59:10;;;;;;;28.88;20.33;;;;;;;16.76;85.38;101303.78;5055156;28;20119;-75
2022/08/19 06:01:37;;;;;;;32.08;21.70;;;;;;;16.80;85.04;101299.28;5045318;28;20043;-75
2022/08/19 06:04:03;;;;;;;34.25;22.55;;;;;;;16.83;85.37;101299.97;5055655;28;20074;-75
2022/08/19 06:06:28;;;;;;;36.03;22.17;;;;;;;16.88;85.14;101293.69;5059498;28;20024;-75
2022/08/19 06:08:54;;;;;;;37.35;23.95;;;;;;;16.92;85.22;101305.72;5055994;28;20155;-75
2022/08/19 06:11:23;;;;;;;36.83;23.40;;;;;;;16.96;85.00;101291.56;5057877;28;20443;-75
2022/08/19 06:13:52;;;;;;;37.03;23.15;;;;;;;17.00;84.82;101295.78;5056606;28;20395;-75
2022/08/19 06:16:20;;;;;;;39.28;25.55;;;;;;;17.04;84.76;101297.34;5061760;28;20025;-75
2022/08/19 06:18:46;;;;;;;39.72;25.45;;;;;;;17.08;84.63;101296.25;5057080;28;20029;-75
2022/08/19 06:21:11;;;;;;;42.47;25.45;;;;;;;17.12;84.64;101303.09;5045772;28;20036;-75
2022/08/19 06:23:36;;;;;;;42.83;25.33;;;;;;;17.16;84.34;101301.19;5060285;28;20032;-75
2022/08/19 06:26:01;;;;;;;44.40;25.38;;;;;;;17.22;84.10;101302.69;5059032;28;20028;-75
2022/08/19 06:28:27;;;;;;;45.10;25.83;;;;;;;17.25;84.05;101302.53;5055689;28;20502;-75
2022/08/19 06:30:52;;;;;;;41.97;26.20;;;;;;;17.29;83.80;101298.81;5057236;28;20017;-75
2022/08/19 06:33:17;;;;;;;43.17;26.48;;;;;;;17.31;83.40;101296.97;5058996;28;20020;-75
2022/08/19 06:35:43;;;;;;;44.55;26.08;;;;;;;17.31;83.32;101296.97;5057875;28;20384;-75
2022/08/19 06:38:09;;;;;;;41.38;26.00;;;;;;;17.34;83.42;101299.47;5062679;28;20395;-75
2022/08/19 06:40:35;;;;;;;48.08;26.60;;;;;;;17.38;84.27;101294.91;5056382;28;20108;-75
2022/08/19 06:43:01;;;;;;;42.28;25.73;;;;;;;17.42;84.08;101292.06;5057671;28;20032;-75
2022/08/19 06:45:27;;;;;;;45.97;25.98;;;;;;;17.47;84.06;101289.22;5059905;28;20435;-75
2022/08/19 06:47:55;;;;;;;40.47;25.35;;;;;;;17.53;83.97;101293.34;5061593;28;20159;-74
2022/08/19 06:50:22;;;;;;;41.35;25.55;;;;;;;17.54;83.39;101289.78;5060189;28;20024;-75
2022/08/19 06:52:47;;;;;;;42.25;26.42;;;;;;;17.56;83.82;101299.28;5058716;28;20539;-75
2022/08/19 06:55:12;;;;;;;43.63;25.95;;;;;;;17.60;83.61;101294.72;5063396;28;20103;-75
2022/08/19 06:57:38;;;;;;;43.42;25.48;;;;;;;17.63;83.09;101294.59;5061902;28;20071;-75
2022/08/19 07:00:06;;;;;;;42.40;26.35;;;;;;;17.69;83.44;101296.06;5061836;28;20021;-75
2022/08/19 07:02:31;;;;;;;41.75;24.65;;;;;;;17.73;83.76;101297.63;5065246;28;20024;-74
2022/08/19 07:04:57;;;;;;;44.42;26.25;;;;;;;17.79;83.44;101297.34;5059362;28;20017;-75
2022/08/19 07:07:23;;;;;;;41.38;24.95;;;;;;;17.85;83.18;101301.44;5055155;28;20021;-75
2022/08/19 07:09:50;;;;;;;43.13;26.42;;;;;;;17.89;83.27;101303.00;5057558;28;20475;-75
2022/08/19 07:12:15;;;;;;;41.22;25.48;;;;;;;17.92;82.71;101296.72;5061722;28;20041;-75
2022/08/19 07:14:41;;;;;;;40.28;24.50;;;;;;;17.96;82.89;101299.13;5062994;28;20039;-76
2022/08/19 07:17:10;;;;;;;41.80;25.00;;;;;;;18.01;83.29;101302.41;5044118;28;20051;-76
2022/08/19 07:19:36;;;;;;;38.90;24.13;;;;;;;18.05;82.36;101305.75;5059892;28;20535;-76
2022/08/19 07:22:05;;;;;;;39.40;25.20;;;;;;;18.12;82.78;101314.19;5054848;28;20068;-76
2022/08/19 07:24:31;;;;;;;39.83;24.48;;;;;;;18.18;82.68;101313.88;5039602;28;20016;-76
2022/08/19 07:27:00;;;;;;;41.30;24.70;;;;;;;18.24;82.32;101318.00;5057547;28;20052;-77
2022/08/19 07:29:26;;;;;;;40.47;24.13;;;;;;;18.30;82.24;101318.53;5060462;28;20460;-77
2022/08/19 07:31:56;;;;;;;43.63;24.98;;;;;;;18.33;82.03;101313.09;5056105;28;20107;-77
2022/08/19 07:34:22;;;;;;;38.65;22.50;;;;;;;18.38;81.79;101319.94;5062045;28;20028;-76
2022/08/19 07:36:48;;;;;;;37.38;23.40;;;;;;;18.46;82.45;101312.47;5058036;28;20070;-77
2022/08/19 07:39:19;;;;;;;36.17;22.15;;;;;;;18.54;82.25;101320.84;5057113;28;20017;-77
2022/08/19 07:41:46;;;;;;;37.70;21.23;;;;;;;18.62;82.24;101318.66;5055853;28;20032;-76
2022/08/19 07:44:12;;;;;;;35.40;21.23;;;;;;;18.68;80.90;101322.78;5057936;28;20029;-77
2022/08/19 07:46:41;;;;;;;35.88;21.77;;;;;;;18.74;81.14;101326.88;5055454;28;20487;-76
2022/08/19 07:49:08;;;;;;;34.08;21.35;;;;;;;18.81;80.21;101333.50;5044457;28;20043;-77
2022/08/19 07:51:34;;;;;;;37.17;21.65;;;;;;;18.89;80.75;101330.44;5059377;28;20024;-76
2022/08/19 07:53:59;;;;;;;37.03;22.65;;;;;;;18.96;80.89;101338.00;5058091;28;20036;-77
2022/08/19 07:56:25;;;;;;;36.70;23.42;;;;;;;19.04;80.07;101334.09;5041663;28;20091;-76
2022/08/19 07:58:52;;;;;;;35.80;23.98;;;;;;;19.05;79.74;101335.81;5058082;28;20204;-76
2022/08/19 08:01:22;;;;;;;35.38;22.35;;;;;;;19.07;79.97;101334.78;5059403;28;20433;-76
2022/08/19 08:09:41;;;;;;;35.90;22.77;;;;;;;19.17;79.50;101335.13;5009816;28;20556;-77
2022/08/19 08:12:11;;;;;;;33.72;21.60;;;;;;;19.20;79.27;101339.41;5062947;28;20561;-76
2022/08/19 08:14:41;;;;;;;33.38;22.80;;;;;;;19.21;78.79;101341.13;5063884;28;20032;-77
2022/08/19 08:17:07;;;;;;;36.30;21.93;;;;;;;19.25;79.57;101340.00;5044591;28;20376;-77
2022/08/19 08:19:33;;;;;;;36.00;22.77;;;;;;;19.31;79.05;101338.81;5062277;28;20833;-76
2022/08/19 08:22:01;;;;;;;36.58;22.40;;;;;;;19.34;78.10;101347.41;5064657;28;20047;-76
2022/08/19 08:24:30;;;;;;;33.90;22.55;;;;;;;19.35;77.99;101348.25;5062514;28;20036;-77
2022/08/19 08:26:57;;;;;;;36.60;23.02;;;;;;;19.41;78.15;101363.75;5063133;28;20464;-76
2022/08/19 08:29:22;;;;;;;34.33;23.35;;;;;;;19.43;76.75;101361.91;5062512;28;20482;-77
2022/08/19 08:31:48;;;;;;;34.75;23.10;;;;;;;19.44;77.23;101363.59;5063473;28;20040;-76
2022/08/19 08:34:13;;;;;;;34.13;22.65;;;;;;;19.46;77.46;101361.72;5061580;28;20045;-76
2022/08/19 08:36:42;;;;;;;37.30;24.02;;;;;;;19.51;77.94;101364.94;5064188;28;20028;-76
2022/08/19 08:39:13;;;;;;;33.10;22.08;;;;;;;19.57;77.33;101369.03;5060510;28;20025;-76
2022/08/19 08:41:52;;;;;;;32.88;23.20;;;;;;;19.63;76.43;101367.88;5043752;28;20033;-76
2022/08/19 08:44:27;;;;;;;34.08;22.95;;;;;;;19.64;76.17;101372.22;5060438;28;20040;-77
2022/08/19 08:47:01;;;;;;;33.10;22.67;;;;;;;19.66;76.10;101372.94;5063341;28;20029;-77
2022/08/19 08:49:43;;;;;;;35.85;22.42;;;;;;;19.73;75.99;101368.19;5063028;28;20033;-77
2022/08/19 08:52:23;;;;;;;33.15;22.70;;;;;;;19.79;76.26;101373.97;5060431;28;20024;-76
2022/08/19 08:54:52;;;;;;;35.33;23.17;;;;;;;19.85;76.67;101370.97;5056229;28;20119;-76
2022/08/19 08:57:47;;;;;;;34.97;22.63;;;;;;;19.93;75.73;101369.75;5059821;28;21655;-77
2022/08/19 09:00:18;;;;;;;33.47;22.67;;;;;;;19.96;75.18;101369.56;5058696;28;20105;-76
2022/08/19 09:02:44;;;;;;;32.35;22.80;;;;;;;19.98;74.59;101370.34;5060449;28;20032;-79
2022/08/19 09:05:12;;;;;;;35.47;24.50;;;;;;;19.96;75.11;101377.50;5041690;28;20032;-76
2022/08/19 09:07:58;;;;;;;37.80;25.50;;;;;;;19.91;75.75;101372.44;5060751;28;20070;-77
2022/08/19 09:10:36;;;;;;;36.72;24.63;;;;;;;19.89;75.85;101376.13;5060096;28;20052;-77
2022/08/19 09:13:20;;;;;;;32.42;23.95;;;;;;;19.96;75.64;101374.84;5060261;28;20028;-77
2022/08/19 09:15:52;;;;;;;34.97;23.95;;;;;;;19.95;74.49;101367.88;5057314;28;20039;-76
2022/08/19 09:18:18;;;;;;;32.85;23.25;;;;;;;19.94;75.05;101382.00;5059007;28;20095;-77
2022/08/19 09:20:43;;;;;;;33.15;23.60;;;;;;;20.05;73.51;101379.59;5059095;28;20437;-77
2022/08/19 09:23:10;;;;;;;34.85;22.67;;;;;;;20.16;73.22;101377.16;5057453;28;20472;-76
2022/08/19 09:25:36;;;;;;;31.02;22.88;;;;;;;20.22;73.35;101375.13;5060337;28;20048;-77
2022/08/19 09:28:05;;;;;;;34.42;24.52;;;;;;;20.22;73.22;101372.47;5059785;28;20525;-77
2022/08/19 09:30:33;;;;;;;30.90;22.90;;;;;;;20.16;72.88;101382.47;5058729;28;20367;-77
2022/08/19 09:32:59;;;;;;;34.63;21.98;;;;;;;20.10;73.15;101371.41;5058355;28;20032;-77
2022/08/19 09:35:26;;;;;;;29.65;21.83;;;;;;;20.15;72.64;101370.19;5036775;28;20078;-77
2022/08/19 09:37:53;;;;;;;32.35;22.38;;;;;;;20.27;72.29;101378.34;5057080;28;20038;-77
2022/08/19 09:40:19;;;;;;;29.45;21.10;;;;;;;20.41;72.09;101374.91;5058158;28;20055;-78
2022/08/19 09:42:48;;;;;;;29.02;21.23;;;;;;;20.58;71.14;101376.53;5060623;28;20466;-77
2022/08/19 09:45:16;;;;;;;26.45;19.10;;;;;;;20.69;71.04;101383.84;5056361;28;20463;-77
2022/08/19 09:47:41;;;;;;;27.05;19.55;;;;;;;20.71;71.44;101377.50;5058188;28;20036;-77
2022/08/19 09:50:10;;;;;;;27.02;19.02;;;;;;;20.71;70.99;101382.78;5057882;28;20032;-77
2022/08/19 09:52:36;;;;;;;26.08;18.88;;;;;;;20.72;70.73;101384.50;5058084;28;20177;-78
2022/08/19 09:55:07;;;;;;;25.30;18.80;;;;;;;20.74;70.49;101382.63;5055470;28;20112;-78
2022/08/19 09:57:33;;;;;;;26.00;18.98;;;;;;;20.80;70.26;101389.34;5058032;28;20051;-77
2022/08/19 09:59:58;;;;;;;27.50;19.92;;;;;;;20.83;70.84;101388.34;5057960;28;20028;-75
2022/08/19 10:02:24;;;;;;;26.80;19.83;;;;;;;20.86;70.21;101393.41;5057681;28;20040;-76
2022/08/19 10:07:35;;;;;;;28.83;19.98;;;;;;;20.94;70.64;101399.09;5057784;28;20557;-76
2022/08/19 10:10:00;;;;;;;27.70;19.95;;;;;;;20.95;69.72;101400.81;5056977;28;20060;-76
2022/08/19 10:12:26;;;;;;;26.17;19.40;;;;;;;20.98;70.02;101395.34;5058902;28;20070;-76
2022/08/19 10:14:53;;;;;;;28.08;20.25;;;;;;;21.03;69.85;101403.81;5054763;28;20032;-76
2022/08/19 10:17:18;;;;;;;27.08;20.00;;;;;;;21.05;69.56;101401.94;5054864;28;20467;-75
2022/08/19 10:19:44;;;;;;;28.35;19.55;;;;;;;21.11;68.67;101397.22;5057056;28;20052;-76
2022/08/19 10:22:14;;;;;;;29.35;20.35;;;;;;;21.16;69.20;101392.50;5057562;28;20035;-76
2022/08/19 10:24:40;;;;;;;28.45;20.45;;;;;;;21.23;69.96;101393.81;5057066;28;20020;-76
2022/08/19 10:27:05;;;;;;;29.40;21.13;;;;;;;21.23;68.47;101391.16;5058168;28;20372;-76
2022/08/19 10:29:33;;;;;;;28.50;20.35;;;;;;;21.27;68.44;101395.31;5056175;28;20090;-76
2022/08/19 10:32:01;;;;;;;26.95;20.30;;;;;;;21.34;68.12;101386.06;5058507;28;20033;-74
2022/08/19 10:34:28;;;;;;;25.88;18.52;;;;;;;21.41;67.99;101396.25;5058946;28;20159;-75
2022/08/19 10:36:54;;;;;;;27.00;19.73;;;;;;;21.41;68.28;101393.59;5056417;28;20058;-77
2022/08/19 10:39:19;;;;;;;29.00;20.73;;;;;;;21.35;67.66;101390.38;5057017;28;20020;-75
2022/08/19 10:41:44;;;;;;;29.48;21.25;;;;;;;21.32;68.02;101397.69;5057607;28;20577;-75
2022/08/19 10:44:11;;;;;;;30.40;21.85;;;;;;;21.30;68.36;101395.13;5056313;28;20032;-75
2022/08/19 10:46:41;;;;;;;29.15;21.13;;;;;;;21.30;68.50;101395.13;5058260;28;20035;-76
2022/08/19 10:49:08;;;;;;;30.08;21.65;;;;;;;21.33;68.24;101388.78;5059620;28;20036;-75
2022/08/19 10:54:18;;;;;;;30.83;21.23;;;;;;;21.43;67.49;101389.06;5054003;28;20075;-74
2022/08/19 10:56:52;;;;;;;29.27;21.85;;;;;;;21.51;67.77;101378.84;5057907;28;20055;-75
2022/08/19 10:59:27;;;;;;;30.25;21.13;;;;;;;21.55;65.48;101382.97;5056539;28;20111;-75
2022/08/19 11:01:53;;;;;;;27.20;19.67;;;;;;;21.60;65.16;101383.59;5057076;28;20162;-74
2022/08/19 11:04:19;;;;;;;27.35;20.05;;;;;;;21.65;65.62;101383.28;5057485;28;20035;-74
2022/08/19 11:06:47;;;;;;;28.27;20.17;;;;;;;21.73;65.74;101378.34;5058160;28;20493;-75
2022/08/19 11:09:18;;;;;;;29.23;20.38;;;;;;;21.75;66.47;101373.81;5055331;28;20058;-75
2022/08/19 11:11:44;;;;;;;28.15;20.23;;;;;;;21.77;65.40;101382.50;5056068;28;20044;-75
2022/08/19 11:14:13;;;;;;;27.13;19.75;;;;;;;21.79;65.33;101380.59;5055103;28;20102;-74
2022/08/19 11:16:38;;;;;;;31.40;20.45;;;;;;;21.85;65.47;101379.38;5056799;28;20032;-74
2022/08/19 11:19:05;;;;;;;27.55;19.10;;;;;;;21.91;65.65;101372.81;5056807;28;20051;-75
2022/08/19 11:21:33;;;;;;;31.13;21.05;;;;;;;21.94;65.95;101384.03;5057025;28;20035;-77
2022/08/19 11:24:02;;;;;;;28.88;20.73;;;;;;;21.91;64.85;101378.09;5036219;28;20754;-76
2022/08/19 11:26:30;;;;;;;28.73;20.75;;;;;;;21.92;66.02;101385.09;5056113;28;20029;-76
2022/08/19 11:28:56;;;;;;;28.42;20.58;;;;;;;22.02;65.64;101380.06;5057383;28;20490;-76